X  Kiinni Metar Aviation säätiedot     YMML Melbourne International Airport
Lämpötila
17°C Lämpötila
13°C Kastepiste
77% Kosteus



Tuuli
14 KM/T
9 MPH
4 M/S
8 KTS



190°
E
Nykyiset olosuhteet

Puolipilvistä Puolipilvistä
Paine 1009.92 (hPa) - 29.82 (inHg)
Näkyvyys 6.2 (maili) - 10 (km)
Lentokenttä
Lentokentän koodi YMML

Sijainti: Melbourne International Airport
Etäisyys: 18 (km)

Metar:
YMML 301500Z 19008KT 9999 FEW018 SCT021 BKN030 17/13 Q1010 RF00.0/000.0

Aika: 31-01-2023 02:00 AEDT